Cincinnati, Ohio
Traffic Map
Current Weather Conditions
Cincinnati, Ohio
Clear
Clear
24°
Feels Like: 24°
Wind Chill: 24° Ceiling: Unl
Heat Index: 24° Visibility: 10mi
Dew Point: 12° Wind: 3mph
Humidity: 46% Direction: ° ()
Pressure: 29.72in Gusts: 0mph
Raw Report DataKLUK 231853Z VRB03KT 10SM CLR 24/12 A2972 RMK AO2 SLP063 T02390117
Traffic Incident Summary
Active as of:
Severity:
Category:
InformationThere was an issue retrieving the traffic information for this location. Please try a different location or try again shortly.
Advertisements
Track Severe Weather on mobile